createdAt,value
2022-10-01T00:01:07.601Z,100.00
2022-10-01T00:03:35.937Z,100.00
2022-10-01T00:06:09.445Z,100.00
2022-10-01T00:08:38.050Z,100.00
2022-10-01T00:11:31.360Z,100.00
2022-10-01T00:13:58.239Z,100.00
2022-10-01T00:16:28.232Z,100.00
2022-10-01T00:18:55.691Z,100.00
2022-10-01T00:21:28.421Z,100.00
2022-10-01T00:23:57.696Z,100.00
2022-10-01T00:26:28.388Z,100.00
2022-10-01T00:28:57.798Z,100.00
2022-10-01T00:31:25.455Z,100.00
2022-10-01T00:33:53.838Z,100.00
2022-10-01T00:36:21.583Z,100.00
2022-10-01T00:38:48.329Z,100.00
2022-10-01T00:41:16.926Z,100.00
2022-10-01T00:43:46.702Z,100.00
2022-10-01T00:46:28.771Z,100.00
2022-10-01T00:49:03.837Z,100.00
2022-10-01T00:54:42.696Z,100.00
2022-10-01T00:57:10.420Z,100.00
2022-10-01T00:59:37.546Z,100.00
2022-10-01T01:02:04.570Z,100.00
2022-10-01T01:04:31.531Z,100.00
2022-10-01T01:07:02.421Z,100.00
2022-10-01T01:09:32.642Z,100.00
2022-10-01T01:12:14.477Z,100.00
2022-10-01T01:15:09.880Z,100.00
2022-10-01T01:17:42.727Z,100.00
2022-10-01T01:20:31.060Z,100.00
2022-10-01T01:23:27.214Z,100.00
2022-10-01T01:26:04.644Z,100.00
2022-10-01T01:28:35.487Z,100.00
2022-10-01T01:31:07.890Z,100.00
2022-10-01T01:33:37.199Z,100.00
2022-10-01T01:36:09.557Z,100.00
2022-10-01T01:38:43.185Z,100.00
2022-10-01T01:41:11.574Z,100.00
2022-10-01T01:43:43.918Z,100.00
2022-10-01T01:46:13.313Z,100.00
2022-10-01T01:48:41.723Z,100.00
2022-10-01T01:51:16.724Z,100.00
2022-10-01T01:53:43.693Z,100.00
2022-10-01T01:56:11.168Z,100.00
2022-10-01T01:58:39.186Z,100.00
2022-10-01T02:01:05.943Z,100.00
2022-10-01T02:03:34.779Z,100.00
2022-10-01T02:06:21.211Z,100.00
2022-10-01T02:09:12.104Z,100.00
2022-10-01T02:11:53.198Z,100.00
2022-10-01T02:14:35.641Z,100.00
2022-10-01T02:17:16.545Z,100.00
2022-10-01T02:20:11.055Z,100.00
2022-10-01T02:22:54.073Z,100.00
2022-10-01T02:25:26.821Z,100.00
2022-10-01T02:28:21.063Z,100.00
2022-10-01T02:30:50.235Z,100.00
2022-10-01T02:33:21.717Z,100.00
2022-10-01T02:35:53.575Z,100.00
2022-10-01T02:38:24.105Z,100.00
2022-10-01T02:40:55.665Z,100.00
2022-10-01T02:43:31.308Z,100.00
2022-10-01T02:46:05.781Z,100.00
2022-10-01T02:48:33.128Z,100.00
2022-10-01T02:51:19.396Z,100.00
2022-10-01T02:53:52.793Z,100.00
2022-10-01T02:56:48.333Z,100.00
2022-10-01T02:59:15.566Z,100.00
2022-10-01T03:01:42.360Z,100.00
2022-10-01T03:04:09.129Z,100.00
2022-10-01T03:06:35.987Z,100.00
2022-10-01T03:09:02.747Z,100.00
2022-10-01T03:11:29.778Z,100.00
2022-10-01T03:13:56.886Z,100.00
2022-10-01T03:16:23.727Z,100.00
2022-10-01T03:18:50.578Z,100.00
2022-10-01T03:21:17.354Z,100.00
2022-10-01T03:23:44.010Z,100.00
2022-10-01T03:26:10.761Z,100.00
2022-10-01T03:28:37.466Z,100.00
2022-10-01T03:31:08.909Z,100.00
2022-10-01T03:33:36.061Z,100.00
2022-10-01T03:36:04.227Z,100.00
2022-10-01T03:38:31.601Z,100.00
2022-10-01T03:40:58.344Z,100.00
2022-10-01T03:43:26.969Z,100.00
2022-10-01T03:45:53.734Z,100.00
2022-10-01T03:48:21.162Z,100.00
2022-10-01T03:50:59.344Z,100.00
2022-10-01T03:53:27.619Z,100.00
2022-10-01T03:55:54.862Z,100.00
2022-10-01T03:58:22.701Z,100.00
2022-10-01T04:00:50.401Z,100.00
2022-10-01T04:03:18.101Z,100.00
2022-10-01T04:05:46.019Z,100.00
2022-10-01T04:08:14.205Z,100.00
2022-10-01T04:10:41.750Z,100.00
2022-10-01T04:13:08.918Z,100.00
2022-10-01T04:15:35.659Z,100.00
2022-10-01T04:18:05.464Z,100.00
2022-10-01T04:20:37.329Z,100.00
2022-10-01T04:23:05.444Z,100.00
2022-10-01T04:25:32.649Z,99.91
2022-10-01T04:28:04.478Z,100.00
2022-10-01T04:30:38.218Z,100.00
2022-10-01T04:33:05.871Z,100.00
2022-10-01T04:35:33.591Z,100.00
2022-10-01T04:38:16.149Z,100.00
2022-10-01T04:40:43.340Z,100.00
2022-10-01T04:43:11.355Z,100.00
2022-10-01T04:45:38.228Z,99.51
2022-10-01T04:48:05.324Z,99.02
2022-10-01T04:50:32.616Z,97.30
2022-10-01T04:52:59.592Z,96.25
2022-10-01T04:55:26.780Z,95.90
2022-10-01T04:57:53.698Z,94.66
2022-10-01T05:00:24.613Z,94.66
2022-10-01T05:02:51.862Z,93.36
2022-10-01T05:05:21.365Z,92.94
2022-10-01T05:07:48.763Z,92.87
2022-10-01T05:10:19.602Z,92.63
2022-10-01T05:12:47.516Z,91.75
2022-10-01T05:15:15.769Z,90.48
2022-10-01T05:17:43.026Z,89.98
2022-10-01T05:20:16.777Z,90.97
2022-10-01T05:22:45.137Z,91.91
2022-10-01T05:25:12.086Z,92.76
2022-10-01T05:27:40.359Z,91.86
2022-10-01T05:30:09.546Z,93.07
2022-10-01T05:32:36.847Z,94.16
2022-10-01T05:35:06.350Z,95.64
2022-10-01T05:37:33.829Z,96.14
2022-10-01T05:40:00.895Z,98.07
2022-10-01T05:42:27.614Z,100.00
2022-10-01T05:44:54.358Z,100.00
2022-10-01T05:47:22.038Z,100.00
2022-10-01T05:49:48.726Z,100.00
2022-10-01T05:52:16.306Z,100.00
2022-10-01T05:54:43.104Z,100.00
2022-10-01T05:57:10.569Z,100.00
2022-10-01T05:59:37.287Z,100.00
2022-10-01T06:02:04.537Z,100.00
2022-10-01T06:04:31.450Z,100.00
2022-10-01T06:06:58.356Z,100.00
2022-10-01T06:09:25.269Z,100.00
2022-10-01T06:11:52.015Z,100.00
2022-10-01T06:14:18.882Z,100.00
2022-10-01T06:16:46.873Z,100.00
2022-10-01T06:19:13.789Z,100.00
2022-10-01T06:21:40.615Z,100.00
2022-10-01T06:24:07.367Z,100.00
2022-10-01T06:26:34.302Z,100.00
2022-10-01T06:29:03.429Z,100.00
2022-10-01T06:31:30.615Z,100.00
2022-10-01T06:33:57.517Z,100.00
2022-10-01T06:36:24.510Z,100.00
2022-10-01T06:38:52.045Z,100.00
2022-10-01T06:41:18.814Z,100.00
2022-10-01T06:43:45.591Z,100.00
2022-10-01T06:46:12.386Z,100.00
2022-10-01T06:49:04.529Z,100.00
2022-10-01T06:51:52.550Z,100.00
2022-10-01T06:54:20.113Z,100.00
2022-10-01T06:56:46.935Z,100.00
2022-10-01T06:59:13.797Z,100.00
2022-10-01T07:01:41.107Z,100.00
2022-10-01T07:04:08.022Z,100.00
2022-10-01T07:06:34.728Z,100.00
2022-10-01T07:09:01.434Z,100.00
2022-10-01T07:11:30.512Z,100.00
2022-10-01T07:13:57.549Z,100.00
2022-10-01T07:16:24.322Z,100.00
2022-10-01T07:18:51.967Z,100.00
2022-10-01T07:21:18.798Z,100.00
2022-10-01T07:23:45.495Z,100.00
2022-10-01T07:26:12.210Z,100.00
2022-10-01T07:28:39.019Z,100.00
2022-10-01T07:31:11.681Z,100.00
2022-10-01T07:33:39.186Z,100.00
2022-10-01T07:36:08.171Z,100.00
2022-10-01T07:38:35.185Z,100.00
2022-10-01T07:41:03.351Z,100.00
2022-10-01T07:43:31.343Z,100.00
2022-10-01T07:46:00.037Z,100.00
2022-10-01T07:48:27.898Z,100.00
2022-10-01T07:50:54.604Z,100.00
2022-10-01T07:53:24.097Z,100.00
2022-10-01T07:55:50.973Z,100.00
2022-10-01T07:58:18.712Z,100.00
2022-10-01T08:00:45.607Z,100.00
2022-10-01T08:03:12.429Z,100.00
2022-10-01T08:05:42.104Z,100.00
2022-10-01T08:08:09.633Z,100.00
2022-10-01T08:10:38.504Z,100.00
2022-10-01T08:13:14.151Z,100.00
2022-10-01T08:15:42.555Z,100.00
2022-10-01T08:18:10.864Z,100.00
2022-10-01T08:20:39.535Z,100.00
2022-10-01T08:23:09.011Z,100.00
2022-10-01T08:25:36.696Z,100.00
2022-10-01T08:28:04.391Z,100.00
2022-10-01T08:30:31.427Z,100.00
2022-10-01T08:32:59.804Z,100.00
2022-10-01T08:35:28.328Z,100.00
2022-10-01T08:37:57.970Z,100.00
2022-10-01T08:40:24.896Z,100.00
2022-10-01T08:43:06.243Z,100.00
2022-10-01T08:45:45.408Z,100.00
2022-10-01T08:48:25.432Z,100.00
2022-10-01T08:50:54.312Z,100.00
2022-10-01T08:53:36.204Z,100.00
2022-10-01T08:56:05.827Z,100.00
2022-10-01T08:58:43.885Z,100.00
2022-10-01T09:01:12.962Z,100.00
2022-10-01T09:03:40.465Z,100.00
2022-10-01T09:06:20.774Z,100.00
2022-10-01T09:09:19.420Z,100.00
2022-10-01T09:11:52.086Z,100.00
2022-10-01T09:14:37.564Z,100.00
2022-10-01T09:17:04.318Z,100.00
2022-10-01T09:19:54.086Z,100.00
2022-10-01T09:22:45.464Z,100.00
2022-10-01T09:25:25.867Z,100.00
2022-10-01T09:28:02.410Z,100.00
2022-10-01T09:30:31.725Z,100.00
2022-10-01T09:33:10.372Z,100.00
2022-10-01T09:35:56.368Z,100.00
2022-10-01T09:38:41.592Z,100.00
2022-10-01T09:41:10.558Z,100.00
2022-10-01T09:43:39.816Z,100.00
2022-10-01T09:46:13.449Z,100.00
2022-10-01T09:48:58.454Z,100.00
2022-10-01T09:51:34.030Z,100.00
2022-10-01T09:54:32.327Z,100.00
2022-10-01T09:57:14.500Z,100.00
2022-10-01T09:59:48.439Z,100.00
2022-10-01T10:02:22.623Z,100.00
2022-10-01T10:05:04.860Z,100.00
2022-10-01T10:07:34.834Z,100.00
2022-10-01T10:10:25.303Z,100.00
2022-10-01T10:13:04.994Z,100.00
2022-10-01T10:15:33.182Z,100.00
2022-10-01T10:18:08.419Z,100.00
2022-10-01T10:20:41.271Z,100.00
2022-10-01T10:23:17.135Z,100.00
2022-10-01T10:25:44.665Z,100.00
2022-10-01T10:28:23.784Z,100.00
2022-10-01T10:30:54.353Z,100.00
2022-10-01T10:33:24.049Z,100.00
2022-10-01T10:36:00.268Z,100.00
2022-10-01T10:38:30.965Z,100.00
2022-10-01T10:40:58.931Z,100.00
2022-10-01T10:43:31.256Z,100.00
2022-10-01T10:45:58.732Z,100.00
2022-10-01T10:48:33.279Z,100.00
2022-10-01T10:51:03.203Z,100.00
2022-10-01T10:53:41.082Z,100.00
2022-10-01T10:56:20.008Z,100.00
2022-10-01T10:58:46.756Z,100.00
2022-10-01T11:01:20.195Z,100.00
2022-10-01T11:03:55.260Z,100.00
2022-10-01T11:06:22.488Z,100.00
2022-10-01T11:08:59.687Z,100.00
2022-10-01T11:11:45.510Z,100.00
2022-10-01T11:14:32.143Z,100.00
2022-10-01T11:17:24.849Z,100.00
2022-10-01T11:20:04.491Z,100.00
2022-10-01T11:22:40.186Z,100.00
2022-10-01T11:25:25.044Z,100.00
2022-10-01T11:28:14.150Z,100.00
2022-10-01T11:30:58.872Z,100.00
2022-10-01T11:33:44.929Z,100.00
2022-10-01T11:36:38.362Z,100.00
2022-10-01T11:39:15.538Z,100.00
2022-10-01T11:41:47.362Z,100.00
2022-10-01T11:44:27.200Z,100.00
2022-10-01T11:47:12.896Z,100.00
2022-10-01T11:49:59.715Z,100.00
2022-10-01T11:53:17.600Z,100.00
2022-10-01T11:56:12.695Z,100.00
2022-10-01T11:58:59.722Z,100.00
2022-10-01T12:01:59.851Z,100.00
2022-10-01T12:05:17.016Z,100.00
2022-10-01T12:07:53.295Z,100.00
2022-10-01T12:10:45.021Z,98.24
2022-10-01T12:13:29.855Z,96.39
2022-10-01T12:19:09.711Z,94.28
2022-10-01T12:21:56.549Z,91.95
2022-10-01T12:24:50.110Z,90.04
2022-10-01T12:27:29.398Z,89.87
2022-10-01T12:30:08.196Z,89.33
2022-10-01T12:33:02.288Z,86.81
2022-10-01T12:35:35.621Z,86.83
2022-10-01T12:38:47.882Z,86.34
2022-10-01T12:41:39.757Z,85.46
2022-10-01T12:44:45.723Z,85.61
2022-10-01T12:47:18.882Z,83.04
2022-10-01T12:50:07.421Z,78.48
2022-10-01T12:53:02.136Z,77.13
2022-10-01T12:55:58.370Z,74.82
2022-10-01T12:58:31.356Z,69.98
2022-10-01T13:01:24.923Z,70.69
2022-10-01T13:04:13.531Z,69.11
2022-10-01T13:07:00.632Z,65.49
2022-10-01T13:09:48.040Z,65.27
2022-10-01T13:12:30.069Z,62.59
2022-10-01T13:14:57.965Z,65.69
2022-10-01T13:17:34.981Z,68.13
2022-10-01T13:20:24.655Z,67.38
2022-10-01T13:23:09.238Z,68.04
2022-10-01T13:26:09.435Z,66.44
2022-10-01T13:28:55.188Z,66.49
2022-10-01T13:31:39.376Z,66.61
2022-10-01T13:34:26.654Z,68.28
2022-10-01T13:36:54.556Z,69.82
2022-10-01T13:39:30.000Z,69.00
2022-10-01T13:41:58.630Z,66.56
2022-10-01T13:44:34.663Z,64.77
2022-10-01T13:47:07.176Z,63.64
2022-10-01T13:49:36.134Z,64.53
2022-10-01T13:52:03.819Z,65.48
2022-10-01T13:54:34.966Z,64.93
2022-10-01T13:57:25.827Z,69.54
2022-10-01T14:00:11.351Z,68.69
2022-10-01T14:02:41.420Z,70.14
2022-10-01T14:05:46.076Z,71.05
2022-10-01T14:08:30.428Z,72.42
2022-10-01T14:11:20.853Z,75.51
2022-10-01T14:14:09.770Z,73.03
2022-10-01T14:16:41.805Z,73.13
2022-10-01T14:19:11.475Z,73.15
2022-10-01T14:21:48.200Z,73.43
2022-10-01T14:24:23.990Z,74.43
2022-10-01T14:26:56.692Z,74.13
2022-10-01T14:29:45.201Z,74.22
2022-10-01T14:32:50.922Z,74.52
2022-10-01T14:35:30.346Z,75.04
2022-10-01T14:38:01.213Z,75.07
2022-10-01T14:40:37.740Z,75.44
2022-10-01T14:43:16.611Z,74.41
2022-10-01T14:45:58.838Z,75.64
2022-10-01T14:48:28.713Z,75.22
2022-10-01T14:50:58.325Z,76.14
2022-10-01T14:53:34.025Z,76.54
2022-10-01T14:56:11.345Z,76.50
2022-10-01T14:58:43.032Z,76.22
2022-10-01T15:01:20.604Z,76.21
2022-10-01T15:03:49.290Z,76.13
2022-10-01T15:06:19.186Z,75.48
2022-10-01T15:08:52.061Z,75.49
2022-10-01T15:11:21.852Z,75.33
2022-10-01T15:13:51.254Z,74.06
2022-10-01T15:16:22.151Z,74.34
2022-10-01T15:18:53.466Z,74.75
2022-10-01T15:21:26.691Z,74.36
2022-10-01T15:23:54.297Z,74.89
2022-10-01T15:26:29.766Z,74.45
2022-10-01T15:29:06.935Z,74.37
2022-10-01T15:31:34.645Z,74.42
2022-10-01T15:34:03.890Z,75.17
2022-10-01T15:36:31.624Z,75.42
2022-10-01T15:38:59.024Z,75.41
2022-10-01T15:41:32.516Z,76.16
2022-10-01T15:44:03.366Z,76.16
2022-10-01T15:46:34.683Z,76.71
2022-10-01T15:49:17.241Z,76.26
2022-10-01T15:52:09.552Z,76.75
2022-10-01T15:54:37.623Z,76.79
2022-10-01T15:57:06.099Z,77.21
2022-10-01T15:59:34.228Z,77.65
2022-10-01T16:02:01.265Z,78.21
2022-10-01T16:04:28.170Z,78.08
2022-10-01T16:06:55.246Z,78.10
2022-10-01T16:09:24.917Z,78.26
2022-10-01T16:12:06.410Z,78.15
2022-10-01T16:14:39.377Z,78.63
2022-10-01T16:17:18.569Z,78.40
2022-10-01T16:19:47.711Z,78.79
2022-10-01T16:22:23.435Z,79.11
2022-10-01T16:24:55.719Z,79.31
2022-10-01T16:27:26.901Z,79.27
2022-10-01T16:30:08.798Z,79.66
2022-10-01T16:32:35.741Z,80.20
2022-10-01T16:35:19.780Z,80.14
2022-10-01T16:37:49.714Z,80.43
2022-10-01T16:40:22.100Z,80.28
2022-10-01T16:42:50.510Z,80.51
2022-10-01T16:45:19.848Z,80.87
2022-10-01T16:47:46.886Z,81.13
2022-10-01T16:50:16.257Z,81.53
2022-10-01T16:52:43.279Z,81.63
2022-10-01T16:55:18.664Z,82.19
2022-10-01T16:57:45.458Z,82.07
2022-10-01T17:00:17.218Z,82.67
2022-10-01T17:02:44.774Z,82.55
2022-10-01T17:05:23.182Z,82.65
2022-10-01T17:07:49.998Z,83.24
2022-10-01T17:10:19.128Z,82.98
2022-10-01T17:12:56.011Z,83.09
2022-10-01T17:15:27.040Z,83.41
2022-10-01T17:17:55.109Z,83.77
2022-10-01T17:20:23.356Z,83.72
2022-10-01T17:22:51.680Z,84.11
2022-10-01T17:25:21.804Z,84.83
2022-10-01T17:27:49.100Z,84.82
2022-10-01T17:30:16.637Z,84.88
2022-10-01T17:32:46.204Z,85.21
2022-10-01T17:35:16.305Z,85.41
2022-10-01T17:37:43.244Z,86.28
2022-10-01T17:40:10.509Z,87.01
2022-10-01T17:42:37.352Z,87.29
2022-10-01T17:45:07.779Z,88.52
2022-10-01T17:47:34.720Z,88.66
2022-10-01T17:50:02.748Z,89.58
2022-10-01T17:52:32.132Z,91.37
2022-10-01T17:54:58.968Z,91.56
2022-10-01T17:57:26.047Z,92.41
2022-10-01T17:59:52.856Z,92.79
2022-10-01T18:02:40.538Z,94.16
2022-10-01T18:05:09.436Z,94.17
2022-10-01T18:07:39.044Z,95.48
2022-10-01T18:10:09.022Z,98.50
2022-10-01T18:12:35.714Z,100.00
2022-10-01T18:15:02.537Z,100.00
2022-10-01T18:17:32.159Z,100.00
2022-10-01T18:19:59.192Z,100.00
2022-10-01T18:22:27.650Z,100.00
2022-10-01T18:24:57.199Z,100.00
2022-10-01T18:27:23.942Z,100.00
2022-10-01T18:29:50.727Z,100.00
2022-10-01T18:32:26.154Z,100.00
2022-10-01T18:34:54.706Z,100.00
2022-10-01T18:37:39.038Z,100.00
2022-10-01T18:40:11.243Z,100.00
2022-10-01T18:42:46.500Z,100.00
2022-10-01T18:45:17.698Z,100.00
2022-10-01T18:47:58.511Z,100.00
2022-10-01T18:50:56.993Z,100.00
2022-10-01T18:53:43.950Z,100.00
2022-10-01T18:56:18.574Z,100.00
2022-10-01T18:59:04.211Z,100.00
2022-10-01T19:01:48.193Z,100.00
2022-10-01T19:04:41.997Z,100.00
2022-10-01T19:07:17.754Z,100.00
2022-10-01T19:09:53.857Z,100.00
2022-10-01T19:12:54.573Z,100.00
2022-10-01T19:15:56.944Z,100.00
2022-10-01T19:18:38.917Z,100.00
2022-10-01T19:21:21.371Z,100.00
2022-10-01T19:24:29.839Z,100.00
2022-10-01T19:27:11.210Z,100.00
2022-10-01T19:29:44.374Z,100.00
2022-10-01T19:32:17.342Z,100.00
2022-10-01T19:35:01.768Z,100.00
2022-10-01T19:37:39.209Z,100.00
2022-10-01T19:40:45.574Z,100.00
2022-10-01T19:43:25.658Z,100.00
2022-10-01T19:45:58.857Z,100.00
2022-10-01T19:48:52.935Z,100.00
2022-10-01T19:51:23.245Z,100.00
2022-10-01T19:53:59.960Z,100.00
2022-10-01T19:56:34.810Z,100.00
2022-10-01T19:59:10.670Z,100.00
2022-10-01T20:01:41.567Z,100.00
2022-10-01T20:04:18.281Z,100.00
2022-10-01T20:06:46.832Z,100.00
2022-10-01T20:09:35.422Z,100.00
2022-10-01T20:12:50.153Z,100.00
2022-10-01T20:15:39.773Z,100.00
2022-10-01T20:18:20.371Z,100.00
2022-10-01T20:21:04.447Z,100.00
2022-10-01T20:23:36.740Z,100.00
2022-10-01T20:26:23.607Z,100.00
2022-10-01T20:29:13.420Z,100.00
2022-10-01T20:31:52.451Z,100.00
2022-10-01T20:34:57.041Z,100.00
2022-10-01T20:37:42.929Z,100.00
2022-10-01T20:40:25.085Z,100.00
2022-10-01T20:43:01.800Z,100.00
2022-10-01T20:45:33.387Z,100.00
2022-10-01T20:48:32.433Z,100.00
2022-10-01T20:51:12.715Z,100.00
2022-10-01T20:53:53.094Z,100.00
2022-10-01T20:56:26.268Z,100.00
2022-10-01T20:58:59.227Z,100.00
2022-10-01T21:01:30.202Z,100.00
2022-10-01T21:04:03.538Z,100.00
2022-10-01T21:06:39.747Z,100.00
2022-10-01T21:09:27.789Z,100.00
2022-10-01T21:12:41.987Z,100.00
2022-10-01T21:15:14.503Z,100.00
2022-10-01T21:18:16.692Z,100.00
2022-10-01T21:20:53.791Z,100.00
2022-10-01T21:23:42.629Z,100.00
2022-10-01T21:26:35.555Z,100.00
2022-10-01T21:29:22.025Z,100.00
2022-10-01T21:32:24.962Z,100.00
2022-10-01T21:34:57.615Z,100.00
2022-10-01T21:37:34.262Z,100.00
2022-10-01T21:40:10.130Z,100.00
2022-10-01T21:42:49.270Z,100.00
2022-10-01T21:45:26.034Z,100.00
2022-10-01T21:48:19.229Z,100.00
2022-10-01T21:51:00.481Z,100.00
2022-10-01T21:53:36.315Z,100.00
2022-10-01T21:56:39.555Z,100.00
2022-10-01T21:59:50.889Z,100.00
2022-10-01T22:02:19.205Z,100.00
2022-10-01T22:04:52.390Z,100.00
2022-10-01T22:07:32.802Z,100.00
2022-10-01T22:10:30.831Z,100.00
2022-10-01T22:13:02.017Z,100.00
2022-10-01T22:15:44.505Z,100.00
2022-10-01T22:18:18.222Z,100.00
2022-10-01T22:20:46.784Z,100.00
2022-10-01T22:23:17.541Z,100.00
2022-10-01T22:25:52.875Z,100.00
2022-10-01T22:28:28.401Z,100.00
2022-10-01T22:30:58.727Z,100.00
2022-10-01T22:33:35.022Z,100.00
2022-10-01T22:36:29.835Z,100.00
2022-10-01T22:39:02.946Z,100.00
2022-10-01T22:41:35.904Z,100.00
2022-10-01T22:44:14.540Z,100.00
2022-10-01T22:46:51.641Z,100.00
2022-10-01T22:49:24.665Z,100.00
2022-10-01T22:52:12.797Z,100.00
2022-10-01T22:54:56.311Z,100.00
2022-10-01T22:57:36.230Z,100.00
2022-10-01T23:00:08.607Z,100.00
2022-10-01T23:02:35.449Z,100.00
2022-10-01T23:05:24.094Z,100.00
2022-10-01T23:08:33.449Z,100.00
2022-10-01T23:11:25.793Z,100.00
2022-10-01T23:14:13.211Z,100.00
2022-10-01T23:16:46.703Z,100.00
2022-10-01T23:19:28.950Z,100.00
2022-10-01T23:22:13.360Z,100.00
2022-10-01T23:24:54.968Z,100.00
2022-10-01T23:27:37.060Z,100.00
2022-10-01T23:30:11.718Z,100.00
2022-10-01T23:32:47.596Z,100.00
2022-10-01T23:35:19.996Z,100.00
2022-10-01T23:37:47.176Z,100.00
2022-10-01T23:40:17.916Z,100.00
2022-10-01T23:43:09.227Z,100.00
2022-10-01T23:45:47.999Z,100.00
2022-10-01T23:48:23.393Z,100.00
2022-10-01T23:51:06.127Z,100.00
2022-10-01T23:53:53.032Z,100.00
2022-10-01T23:56:50.839Z,100.00
2022-10-01T23:59:28.126Z,100.00
